createdAt,value
2022-08-02T00:00:12.572Z,100771.63
2022-08-02T00:02:39.148Z,100777.06
2022-08-02T00:05:06.134Z,100778.28
2022-08-02T00:07:36.491Z,100775.78
2022-08-02T00:10:09.048Z,100780.22
2022-08-02T00:12:35.731Z,100771.88
2022-08-02T00:15:02.278Z,100771.06
2022-08-02T00:17:29.403Z,100771.06
2022-08-02T00:19:55.965Z,100770.47
2022-08-02T00:22:22.480Z,100761.84
2022-08-02T00:24:49.006Z,100758.53
2022-08-02T00:27:15.533Z,100762.84
2022-08-02T00:29:50.357Z,100762.72
2022-08-02T00:32:20.738Z,100767.63
2022-08-02T00:34:47.599Z,100778.09
2022-08-02T00:37:14.307Z,100772.16
2022-08-02T00:39:42.418Z,100774.50
2022-08-02T00:42:09.474Z,100786.81
2022-08-02T00:44:36.267Z,100779.38
2022-08-02T00:47:02.895Z,100778.66
2022-08-02T00:49:29.720Z,100786.47
2022-08-02T00:51:56.445Z,100787.16
2022-08-02T00:54:23.244Z,100779.91
2022-08-02T00:56:51.166Z,100784.81
2022-08-02T00:59:18.597Z,100779.59
2022-08-02T01:01:57.012Z,100782.06
2022-08-02T01:04:30.560Z,100786.84
2022-08-02T01:07:00.431Z,100785.66
2022-08-02T01:09:27.401Z,100791.56
2022-08-02T01:11:54.149Z,100791.72
2022-08-02T01:14:24.220Z,100783.31
2022-08-02T01:16:59.900Z,100787.06
2022-08-02T01:19:43.621Z,100791.25
2022-08-02T01:22:59.274Z,100799.00
2022-08-02T01:25:54.998Z,100792.88
2022-08-02T01:28:36.671Z,100781.69
2022-08-02T01:31:21.186Z,100784.88
2022-08-02T01:34:10.332Z,100779.91
2022-08-02T01:36:40.068Z,100772.75
2022-08-02T01:39:11.409Z,100770.16
2022-08-02T01:41:58.818Z,100764.00
2022-08-02T01:44:28.686Z,100767.03
2022-08-02T01:47:01.071Z,100767.41
2022-08-02T01:49:29.767Z,100770.09
2022-08-02T01:52:17.061Z,100768.59
2022-08-02T01:54:46.464Z,100768.72
2022-08-02T01:57:15.939Z,100765.63
2022-08-02T01:59:45.963Z,100769.53
2022-08-02T02:02:14.836Z,100769.97
2022-08-02T02:04:43.767Z,100776.50
2022-08-02T02:07:13.134Z,100774.63
2022-08-02T02:09:50.250Z,100777.63
2022-08-02T02:12:19.044Z,100779.53
2022-08-02T02:14:51.511Z,100785.00
2022-08-02T02:18:11.831Z,100778.16
2022-08-02T02:20:13.015Z,100770.53
2022-08-02T02:22:40.008Z,100769.78
2022-08-02T02:25:08.590Z,100768.97
2022-08-02T02:27:41.475Z,100772.81
2022-08-02T02:30:12.170Z,100767.47
2022-08-02T02:32:40.871Z,100769.72
2022-08-02T02:35:10.599Z,100775.06
2022-08-02T02:37:38.599Z,100776.91
2022-08-02T02:40:06.624Z,100785.38
2022-08-02T02:42:34.571Z,100780.00
2022-08-02T02:45:03.065Z,100781.56
2022-08-02T02:47:41.078Z,100786.50
2022-08-02T02:50:09.726Z,100783.50
2022-08-02T02:52:38.469Z,100786.56
2022-08-02T02:55:06.509Z,100788.09
2022-08-02T02:57:33.666Z,100777.03
2022-08-02T03:00:01.319Z,100776.63
2022-08-02T03:02:28.159Z,100785.03
2022-08-02T03:04:57.979Z,100783.09
2022-08-02T03:07:26.344Z,100788.09
2022-08-02T03:09:54.499Z,100788.75
2022-08-02T03:12:30.254Z,100789.53
2022-08-02T03:15:01.827Z,100779.06
2022-08-02T03:17:45.123Z,100770.44
2022-08-02T03:20:19.938Z,100777.03
2022-08-02T03:22:47.270Z,100772.50
2022-08-02T03:25:15.990Z,100777.88
2022-08-02T03:27:42.790Z,100770.22
2022-08-02T03:30:12.224Z,100768.28
2022-08-02T03:32:41.305Z,100767.16
2022-08-02T03:35:10.472Z,100770.22
2022-08-02T03:37:37.878Z,100777.13
2022-08-02T03:40:07.989Z,100777.53
2022-08-02T03:42:34.960Z,100780.16
2022-08-02T03:45:08.119Z,100774.09
2022-08-02T03:47:37.471Z,100768.34
2022-08-02T03:50:05.063Z,100766.81
2022-08-02T03:52:33.199Z,100761.78
2022-08-02T03:54:59.973Z,100766.81
2022-08-02T03:57:26.785Z,100771.81
2022-08-02T03:59:53.298Z,100761.09
2022-08-02T04:02:19.842Z,100765.28
2022-08-02T04:04:46.365Z,100763.75
2022-08-02T04:07:12.921Z,100766.06
2022-08-02T04:09:39.449Z,100769.50
2022-08-02T04:12:06.158Z,100759.91
2022-08-02T04:14:33.289Z,100771.38
2022-08-02T04:17:06.347Z,100774.47
2022-08-02T04:19:37.318Z,100776.75
2022-08-02T04:22:06.094Z,100780.97
2022-08-02T04:24:39.485Z,100771.75
2022-08-02T04:27:48.979Z,100772.16
2022-08-02T04:29:54.803Z,100770.25
2022-08-02T04:32:22.050Z,100767.94
2022-08-02T04:37:37.653Z,100780.56
2022-08-02T04:40:13.562Z,100787.50
2022-08-02T04:42:40.101Z,100787.50
2022-08-02T04:45:08.091Z,100790.53
2022-08-02T04:48:02.326Z,100792.81
2022-08-02T04:50:21.481Z,100794.75
2022-08-02T04:52:48.076Z,100802.81
2022-08-02T04:55:14.813Z,100807.41
2022-08-02T04:57:57.301Z,100806.00
2022-08-02T05:00:24.812Z,100827.03
2022-08-02T05:02:52.540Z,100824.38
2022-08-02T05:05:19.084Z,100833.63
2022-08-02T05:07:45.650Z,100828.41
2022-08-02T05:10:12.305Z,100829.38
2022-08-02T05:12:39.632Z,100835.91
2022-08-02T05:15:07.329Z,100823.19
2022-08-02T05:17:39.551Z,100821.16
2022-08-02T05:20:14.519Z,100813.00
2022-08-02T05:22:41.776Z,100826.66
2022-08-02T05:25:08.976Z,100825.97
2022-08-02T05:27:35.614Z,100828.91
2022-08-02T05:30:02.729Z,100821.06
2022-08-02T05:32:29.330Z,100825.53
2022-08-02T05:34:55.924Z,100818.91
2022-08-02T05:37:24.987Z,100820.00
2022-08-02T05:39:55.577Z,100828.59
2022-08-02T05:42:23.626Z,100830.31
2022-08-02T05:44:50.371Z,100827.03
2022-08-02T05:47:17.044Z,100830.22
2022-08-02T05:49:43.738Z,100831.50
2022-08-02T05:52:18.537Z,100832.47
2022-08-02T05:55:03.182Z,100829.53
2022-08-02T05:58:04.895Z,100831.16
2022-08-02T06:00:33.787Z,100830.59
2022-08-02T06:03:26.603Z,100835.25
2022-08-02T06:06:05.372Z,100845.44
2022-08-02T06:08:37.289Z,100840.91
2022-08-02T06:11:06.006Z,100848.75
2022-08-02T06:13:33.273Z,100845.22
2022-08-02T06:16:00.442Z,100842.16
2022-08-02T06:18:28.861Z,100842.47
2022-08-02T06:22:30.001Z,100836.88
2022-08-02T06:23:58.517Z,100839.84
2022-08-02T06:26:27.702Z,100838.69
2022-08-02T06:28:56.565Z,100839.06
2022-08-02T06:31:23.160Z,100847.41
2022-08-02T06:34:00.366Z,100845.28
2022-08-02T06:36:39.019Z,100845.13
2022-08-02T06:39:20.997Z,100847.16
2022-08-02T06:41:49.966Z,100841.56
2022-08-02T06:47:11.134Z,100835.19
2022-08-02T06:49:51.515Z,100847.44
2022-08-02T06:52:31.302Z,100844.84
2022-08-02T06:55:02.491Z,100838.56
2022-08-02T06:57:30.004Z,100844.59
2022-08-02T06:59:56.922Z,100843.28
2022-08-02T07:02:23.890Z,100848.06
2022-08-02T07:04:50.721Z,100854.38
2022-08-02T07:07:17.341Z,100844.88
2022-08-02T07:09:57.248Z,100837.88
2022-08-02T07:12:31.108Z,100844.25
2022-08-02T07:14:59.598Z,100836.47
2022-08-02T07:17:27.165Z,100833.66
2022-08-02T07:19:53.806Z,100835.03
2022-08-02T07:22:23.115Z,100834.06
2022-08-02T07:24:53.259Z,100830.44
2022-08-02T07:27:21.297Z,100837.31
2022-08-02T07:29:48.475Z,100830.06
2022-08-02T07:32:16.937Z,100829.81
2022-08-02T07:34:50.498Z,100830.97
2022-08-02T07:37:35.743Z,100823.53
2022-08-02T07:40:13.346Z,100829.72
2022-08-02T07:42:44.716Z,100830.78
2022-08-02T07:45:12.556Z,100838.06
2022-08-02T07:47:43.404Z,100825.97
2022-08-02T07:50:12.163Z,100826.19
2022-08-02T07:52:42.927Z,100826.41
2022-08-02T07:55:10.915Z,100827.28
2022-08-02T07:57:42.519Z,100821.88
2022-08-02T08:00:12.866Z,100830.38
2022-08-02T08:02:39.765Z,100828.09
2022-08-02T08:05:06.989Z,100823.84
2022-08-02T08:07:34.272Z,100825.28
2022-08-02T08:10:01.094Z,100817.81
2022-08-02T08:12:28.030Z,100817.41
2022-08-02T08:14:54.565Z,100810.56
2022-08-02T08:17:21.674Z,100813.06
2022-08-02T08:19:51.432Z,100818.03
2022-08-02T08:22:22.572Z,100803.97
2022-08-02T08:24:50.113Z,100808.16
2022-08-02T08:27:17.968Z,100814.53
2022-08-02T08:29:44.697Z,100815.44
2022-08-02T08:32:17.277Z,100809.97
2022-08-02T08:34:48.420Z,100813.09
2022-08-02T08:37:17.755Z,100808.72
2022-08-02T08:39:57.129Z,100821.94
2022-08-02T08:42:27.052Z,100823.75
2022-08-02T08:44:58.803Z,100828.72
2022-08-02T08:47:40.632Z,100826.03
2022-08-02T08:50:24.803Z,100809.88
2022-08-02T08:53:04.740Z,100817.75
2022-08-02T08:55:32.925Z,100829.19
2022-08-02T08:58:01.216Z,100817.53
2022-08-02T09:00:30.146Z,100813.53
2022-08-02T09:02:57.011Z,100813.94
2022-08-02T09:05:23.764Z,100806.09
2022-08-02T09:07:51.747Z,100799.47
2022-08-02T09:10:37.210Z,100803.84
2022-08-02T09:13:38.589Z,100799.50
2022-08-02T09:16:11.729Z,100806.94
2022-08-02T09:18:45.294Z,100802.78
2022-08-02T09:21:13.793Z,100807.56
2022-08-02T09:23:43.490Z,100803.13
2022-08-02T09:26:14.488Z,100810.94
2022-08-02T09:28:43.486Z,100804.91
2022-08-02T09:31:15.860Z,100807.41
2022-08-02T09:33:46.493Z,100809.09
2022-08-02T09:36:15.232Z,100809.41
2022-08-02T09:38:52.934Z,100804.00
2022-08-02T09:41:22.842Z,100814.34
2022-08-02T09:44:03.815Z,100802.94
2022-08-02T09:46:37.446Z,100800.28
2022-08-02T09:49:08.197Z,100809.41
2022-08-02T09:51:59.410Z,100798.72
2022-08-02T09:54:28.867Z,100799.84
2022-08-02T09:57:00.841Z,100802.16
2022-08-02T09:59:29.183Z,100790.72
2022-08-02T10:02:02.045Z,100788.78
2022-08-02T10:04:34.133Z,100793.94
2022-08-02T10:07:19.011Z,100784.22
2022-08-02T10:09:47.620Z,100792.00
2022-08-02T10:12:15.477Z,100786.81
2022-08-02T10:14:43.699Z,100788.88
2022-08-02T10:17:10.381Z,100789.06
2022-08-02T10:20:00.385Z,100774.84
2022-08-02T10:22:25.131Z,100778.94
2022-08-02T10:24:52.457Z,100774.94
2022-08-02T10:27:20.994Z,100776.03
2022-08-02T10:29:54.286Z,100763.53
2022-08-02T10:32:38.408Z,100763.56
2022-08-02T10:35:20.232Z,100766.03
2022-08-02T10:37:58.279Z,100755.06
2022-08-02T10:40:26.861Z,100770.34
2022-08-02T10:42:55.576Z,100769.00
2022-08-02T10:45:23.063Z,100762.75
2022-08-02T10:48:09.965Z,100754.22
2022-08-02T10:50:45.294Z,100758.03
2022-08-02T10:53:32.313Z,100765.84
2022-08-02T10:56:01.159Z,100753.31
2022-08-02T10:58:31.596Z,100742.13
2022-08-02T11:01:02.969Z,100737.31
2022-08-02T11:03:29.590Z,100741.72
2022-08-02T11:06:09.661Z,100742.31
2022-08-02T11:09:33.722Z,100735.28
2022-08-02T11:12:00.404Z,100744.09
2022-08-02T11:14:27.217Z,100732.59
2022-08-02T11:16:56.558Z,100733.06
2022-08-02T11:19:24.001Z,100726.97
2022-08-02T11:22:22.297Z,100727.41
2022-08-02T11:24:51.819Z,100717.13
2022-08-02T11:27:21.586Z,100720.16
2022-08-02T11:29:49.800Z,100726.88
2022-08-02T11:32:31.235Z,100720.78
2022-08-02T11:34:58.823Z,100716.38
2022-08-02T11:37:37.078Z,100712.97
2022-08-02T11:40:19.021Z,100714.13
2022-08-02T11:42:51.488Z,100718.06
2022-08-02T11:45:29.099Z,100717.84
2022-08-02T11:47:56.400Z,100717.31
2022-08-02T11:50:29.745Z,100719.44
2022-08-02T11:52:57.567Z,100717.09
2022-08-02T11:55:32.073Z,100720.31
2022-08-02T11:58:03.054Z,100707.91
2022-08-02T12:00:31.719Z,100711.69
2022-08-02T12:02:58.308Z,100709.59
2022-08-02T12:05:51.147Z,100700.78
2022-08-02T12:08:13.470Z,100703.56
2022-08-02T12:10:48.281Z,100708.50
2022-08-02T12:13:15.182Z,100700.16
2022-08-02T12:15:45.213Z,100697.94
2022-08-02T12:18:38.554Z,100702.06
2022-08-02T12:21:22.167Z,100697.66
2022-08-02T12:24:00.351Z,100700.44
2022-08-02T12:26:29.246Z,100689.13
2022-08-02T12:28:58.856Z,100699.63
2022-08-02T12:31:57.530Z,100700.72
2022-08-02T12:34:31.914Z,100695.75
2022-08-02T12:37:09.421Z,100686.41
2022-08-02T12:39:43.445Z,100699.78
2022-08-02T12:42:12.426Z,100699.78
2022-08-02T12:44:51.235Z,100700.19
2022-08-02T12:47:17.965Z,100686.91
2022-08-02T12:50:31.401Z,100690.47
2022-08-02T12:53:18.221Z,100687.69
2022-08-02T12:56:03.849Z,100682.28
2022-08-02T12:58:31.761Z,100678.03
2022-08-02T13:01:00.356Z,100679.66
2022-08-02T13:04:11.736Z,100669.13
2022-08-02T13:06:41.287Z,100669.78
2022-08-02T13:09:02.074Z,100660.94
2022-08-02T13:11:28.697Z,100664.94
2022-08-02T13:13:55.926Z,100661.88
2022-08-02T13:16:30.729Z,100664.63
2022-08-02T13:18:58.780Z,100658.69
2022-08-02T13:21:40.192Z,100671.56
2022-08-02T13:24:37.651Z,100662.81
2022-08-02T13:26:55.082Z,100665.59
2022-08-02T13:29:21.690Z,100666.06
2022-08-02T13:31:48.393Z,100666.41
2022-08-02T13:34:16.516Z,100663.50
2022-08-02T13:36:43.174Z,100664.28
2022-08-02T13:39:11.839Z,100659.59
2022-08-02T13:41:38.551Z,100657.31
2022-08-02T13:44:10.323Z,100649.69
2022-08-02T13:46:39.744Z,100647.75
2022-08-02T13:49:18.396Z,100643.06
2022-08-02T13:51:45.303Z,100643.03
2022-08-02T13:54:11.828Z,100642.28
2022-08-02T13:56:38.440Z,100632.47
2022-08-02T13:59:26.301Z,100634.63
2022-08-02T14:01:53.204Z,100630.06
2022-08-02T14:04:19.838Z,100625.63
2022-08-02T14:06:46.477Z,100612.66
2022-08-02T14:09:15.703Z,100621.66
2022-08-02T14:11:44.851Z,100617.44
2022-08-02T14:14:16.050Z,100615.44
2022-08-02T14:16:44.528Z,100614.75
2022-08-02T14:19:16.719Z,100614.25
2022-08-02T14:21:48.413Z,100604.00
2022-08-02T14:24:17.049Z,100614.75
2022-08-02T14:26:45.860Z,100603.72
2022-08-02T14:29:13.460Z,100594.97
2022-08-02T14:31:44.401Z,100596.03
2022-08-02T14:34:13.214Z,100591.50
2022-08-02T14:36:40.028Z,100602.88
2022-08-02T14:39:06.978Z,100588.19
2022-08-02T14:41:59.570Z,100599.28
2022-08-02T14:44:23.229Z,100581.25
2022-08-02T14:46:51.547Z,100586.41
2022-08-02T14:49:25.499Z,100590.69
2022-08-02T14:51:57.065Z,100580.47
2022-08-02T14:54:31.360Z,100581.25
2022-08-02T14:56:59.944Z,100579.00
2022-08-02T14:59:27.074Z,100582.59
2022-08-02T15:01:54.426Z,100586.47
2022-08-02T15:04:21.217Z,100581.59
2022-08-02T15:06:51.212Z,100584.41
2022-08-02T15:09:18.486Z,100578.78
2022-08-02T15:11:47.457Z,100580.44
2022-08-02T15:14:25.402Z,100576.84
2022-08-02T15:16:57.020Z,100573.59
2022-08-02T15:19:28.045Z,100563.13
2022-08-02T15:22:16.229Z,100567.75
2022-08-02T15:27:13.530Z,100573.53
2022-08-02T15:29:40.877Z,100571.09
2022-08-02T15:32:07.577Z,100569.97
2022-08-02T15:34:34.202Z,100567.03
2022-08-02T15:37:00.808Z,100572.09
2022-08-02T15:39:27.433Z,100565.56
2022-08-02T15:41:53.924Z,100567.91
2022-08-02T15:44:20.498Z,100580.44
2022-08-02T15:46:47.083Z,100567.94
2022-08-02T15:49:13.735Z,100568.59
2022-08-02T15:51:40.322Z,100554.84
2022-08-02T15:54:06.911Z,100559.50
2022-08-02T15:56:33.461Z,100562.63
2022-08-02T15:58:59.955Z,100563.28
2022-08-02T16:01:37.170Z,100557.91
2022-08-02T16:04:07.083Z,100557.94
2022-08-02T16:06:34.669Z,100544.41
2022-08-02T16:09:01.475Z,100552.44
2022-08-02T16:11:28.158Z,100555.94
2022-08-02T16:13:55.057Z,100546.16
2022-08-02T16:16:23.453Z,100549.41
2022-08-02T16:18:50.090Z,100548.19
2022-08-02T16:21:16.929Z,100538.97
2022-08-02T16:23:58.684Z,100536.47
2022-08-02T16:26:30.200Z,100536.47
2022-08-02T16:28:57.044Z,100531.03
2022-08-02T16:31:23.919Z,100537.59
2022-08-02T16:33:50.530Z,100531.31
2022-08-02T16:36:24.452Z,100535.28
2022-08-02T16:38:52.016Z,100535.28
2022-08-02T16:41:18.669Z,100536.91
2022-08-02T16:43:45.196Z,100538.53
2022-08-02T16:46:11.832Z,100532.19
2022-08-02T16:48:39.132Z,100526.25
2022-08-02T16:51:13.278Z,100524.16
2022-08-02T16:54:00.097Z,100522.22
2022-08-02T16:56:28.927Z,100516.34
2022-08-02T16:58:59.489Z,100511.56
2022-08-02T17:02:01.782Z,100521.56
2022-08-02T17:04:15.595Z,100520.75
2022-08-02T17:06:51.696Z,100518.34
2022-08-02T17:10:02.238Z,100517.53
2022-08-02T17:12:15.903Z,100530.44
2022-08-02T17:14:54.850Z,100524.06
2022-08-02T17:17:33.821Z,100525.50
2022-08-02T17:20:01.902Z,100520.38
2022-08-02T17:22:28.874Z,100522.06
2022-08-02T17:24:55.824Z,100523.06
2022-08-02T17:27:22.666Z,100524.34
2022-08-02T17:29:49.467Z,100521.50
2022-08-02T17:32:18.471Z,100516.03
2022-08-02T17:34:56.340Z,100527.84
2022-08-02T17:37:27.220Z,100518.34
2022-08-02T17:39:55.575Z,100520.53
2022-08-02T17:42:23.772Z,100520.53
2022-08-02T17:44:54.463Z,100516.34
2022-08-02T17:47:22.100Z,100517.41
2022-08-02T17:49:49.212Z,100526.91
2022-08-02T17:52:52.130Z,100525.19
2022-08-02T17:55:07.897Z,100516.44
2022-08-02T17:57:55.250Z,100522.06
2022-08-02T18:00:21.357Z,100526.22
2022-08-02T18:02:50.503Z,100518.88
2022-08-02T18:05:20.293Z,100523.06
2022-08-02T18:07:53.146Z,100524.34
2022-08-02T18:10:22.335Z,100519.66
2022-08-02T18:12:50.003Z,100522.31
2022-08-02T18:15:17.669Z,100525.78
2022-08-02T18:17:46.939Z,100526.72
2022-08-02T18:20:13.609Z,100523.88
2022-08-02T18:22:43.005Z,100518.34
2022-08-02T18:25:11.836Z,100518.72
2022-08-02T18:27:58.383Z,100520.22
2022-08-02T18:30:28.575Z,100520.31
2022-08-02T18:33:57.910Z,100525.56
2022-08-02T18:35:42.664Z,100526.50
2022-08-02T18:38:11.571Z,100528.63
2022-08-02T18:40:38.820Z,100530.34
2022-08-02T18:43:07.214Z,100527.69
2022-08-02T18:46:02.327Z,100534.75
2022-08-02T18:48:21.935Z,100519.06
2022-08-02T18:50:48.784Z,100528.22
2022-08-02T18:53:39.164Z,100538.75
2022-08-02T18:56:06.973Z,100528.72
2022-08-02T18:58:35.094Z,100536.84
2022-08-02T19:01:05.142Z,100532.56
2022-08-02T19:03:41.414Z,100533.88
2022-08-02T19:06:19.677Z,100536.63
2022-08-02T19:08:47.340Z,100534.84
2022-08-02T19:11:35.205Z,100531.94
2022-08-02T19:14:02.335Z,100533.25
2022-08-02T19:16:37.097Z,100531.19
2022-08-02T19:19:05.759Z,100528.47
2022-08-02T19:22:18.229Z,100527.81
2022-08-02T19:24:19.379Z,100532.50
2022-08-02T19:26:51.919Z,100524.03
2022-08-02T19:29:42.166Z,100527.78
2022-08-02T19:32:42.298Z,100527.50
2022-08-02T19:34:55.798Z,100538.84
2022-08-02T19:37:22.426Z,100536.84
2022-08-02T19:39:49.007Z,100529.66
2022-08-02T19:42:16.871Z,100538.22
2022-08-02T19:44:45.197Z,100537.97
2022-08-02T19:47:12.834Z,100532.09
2022-08-02T19:49:48.788Z,100538.34
2022-08-02T19:52:21.830Z,100533.38
2022-08-02T19:54:55.533Z,100537.97
2022-08-02T19:57:25.228Z,100539.41
2022-08-02T19:59:52.758Z,100541.84
2022-08-02T20:02:21.750Z,100538.88
2022-08-02T20:04:50.385Z,100544.75
2022-08-02T20:07:54.316Z,100534.78
2022-08-02T20:10:11.131Z,100534.81
2022-08-02T20:12:54.212Z,100533.13
2022-08-02T20:15:21.826Z,100536.19
2022-08-02T20:20:38.455Z,100535.78
2022-08-02T20:23:33.607Z,100539.16
2022-08-02T20:26:02.316Z,100525.41
2022-08-02T20:28:29.074Z,100527.94
2022-08-02T20:30:55.713Z,100524.94
2022-08-02T20:33:23.253Z,100526.66
2022-08-02T20:35:53.310Z,100527.53
2022-08-02T20:38:24.997Z,100533.94
2022-08-02T20:40:56.503Z,100529.59
2022-08-02T20:43:23.156Z,100533.28
2022-08-02T20:45:58.677Z,100532.72
2022-08-02T20:48:29.694Z,100543.56
2022-08-02T20:50:56.941Z,100533.38
2022-08-02T20:53:26.047Z,100540.53
2022-08-02T20:55:56.904Z,100539.66
2022-08-02T20:58:27.179Z,100543.56
2022-08-02T21:00:58.591Z,100546.97
2022-08-02T21:03:25.672Z,100541.81
2022-08-02T21:06:05.723Z,100554.94
2022-08-02T21:08:34.608Z,100545.72
2022-08-02T21:11:01.291Z,100552.81
2022-08-02T21:13:46.690Z,100559.41
2022-08-02T21:16:18.104Z,100564.00
2022-08-02T21:18:45.987Z,100562.25
2022-08-02T21:21:14.470Z,100563.50
2022-08-02T21:23:48.571Z,100566.22
2022-08-02T21:26:28.146Z,100570.97
2022-08-02T21:28:58.030Z,100558.31
2022-08-02T21:31:29.666Z,100568.25
2022-08-02T21:33:59.465Z,100564.53
2022-08-02T21:36:31.446Z,100561.09
2022-08-02T21:39:05.379Z,100564.09
2022-08-02T21:41:39.918Z,100564.94
2022-08-02T21:44:15.876Z,100567.97
2022-08-02T21:46:44.560Z,100559.50
2022-08-02T21:49:12.489Z,100563.22
2022-08-02T21:51:42.686Z,100560.06
2022-08-02T21:54:18.375Z,100560.63
2022-08-02T21:56:48.236Z,100570.41
2022-08-02T21:59:17.405Z,100572.16
2022-08-02T22:01:53.035Z,100566.34
2022-08-02T22:04:20.987Z,100570.78
2022-08-02T22:06:49.092Z,100575.59
2022-08-02T22:09:44.451Z,100572.03
2022-08-02T22:12:06.522Z,100569.94
2022-08-02T22:14:39.613Z,100581.47
2022-08-02T22:17:08.749Z,100574.03
2022-08-02T22:19:40.114Z,100584.03
2022-08-02T22:22:20.071Z,100574.66
2022-08-02T22:24:46.664Z,100581.66
2022-08-02T22:27:14.221Z,100584.59
2022-08-02T22:29:40.733Z,100580.00
2022-08-02T22:32:10.779Z,100587.75
2022-08-02T22:34:51.671Z,100588.78
2022-08-02T22:38:14.528Z,100585.38
2022-08-02T22:40:20.815Z,100589.84
2022-08-02T22:42:47.423Z,100584.03
2022-08-02T22:45:14.077Z,100589.31
2022-08-02T22:47:50.843Z,100586.69
2022-08-02T22:50:18.194Z,100590.63
2022-08-02T22:52:46.931Z,100592.63
2022-08-02T22:55:17.797Z,100589.22
2022-08-02T22:57:56.323Z,100586.25
2022-08-02T22:59:06.569Z,100532.56
2022-08-02T23:00:24.812Z,100595.81
2022-08-02T23:02:51.496Z,100587.25
2022-08-02T23:05:18.053Z,100590.78
2022-08-02T23:07:44.565Z,100588.06
2022-08-02T23:10:11.105Z,100583.28
2022-08-02T23:12:37.618Z,100585.56
2022-08-02T23:15:04.548Z,100581.91
2022-08-02T23:17:49.335Z,100579.84
2022-08-02T23:20:19.853Z,100579.22
2022-08-02T23:22:46.386Z,100578.53
2022-08-02T23:25:14.345Z,100586.69
2022-08-02T23:27:50.418Z,100583.50
2022-08-02T23:30:18.425Z,100586.88
2022-08-02T23:32:47.729Z,100578.38
2022-08-02T23:35:17.282Z,100585.75
2022-08-02T23:37:59.831Z,100581.56
2022-08-02T23:40:39.394Z,100587.69
2022-08-02T23:43:14.010Z,100588.19
2022-08-02T23:45:43.204Z,100592.88
2022-08-02T23:48:09.724Z,100589.63
2022-08-02T23:50:36.435Z,100590.72
2022-08-02T23:53:02.959Z,100592.81
2022-08-02T23:55:29.513Z,100589.13
2022-08-02T23:57:56.089Z,100599.22
